createdAt,value
2023-12-07T00:00:16.623Z,77.15
2023-12-07T00:03:03.626Z,76.93
2023-12-07T00:05:50.563Z,76.93
2023-12-07T00:08:37.445Z,77.00
2023-12-07T00:11:24.440Z,76.83
2023-12-07T00:14:11.320Z,77.02
2023-12-07T00:16:58.328Z,77.02
2023-12-07T00:19:45.320Z,76.97
2023-12-07T00:22:32.242Z,77.07
2023-12-07T00:25:19.251Z,77.20
2023-12-07T00:28:06.483Z,77.01
2023-12-07T00:30:53.760Z,77.15
2023-12-07T00:33:40.660Z,77.19
2023-12-07T00:36:27.523Z,77.29
2023-12-07T00:39:14.367Z,76.99
2023-12-07T00:42:01.243Z,77.19
2023-12-07T00:44:48.125Z,77.42
2023-12-07T00:47:34.991Z,76.83
2023-12-07T00:50:21.842Z,77.04
2023-12-07T00:53:09.938Z,77.12
2023-12-07T00:55:56.790Z,77.29
2023-12-07T00:58:43.665Z,77.48
2023-12-07T01:01:30.569Z,77.13
2023-12-07T01:04:18.898Z,77.19
2023-12-07T01:07:06.011Z,77.09
2023-12-07T01:09:52.996Z,77.45
2023-12-07T01:12:39.960Z,77.03
2023-12-07T01:15:27.040Z,77.48
2023-12-07T01:18:14.021Z,77.19
2023-12-07T01:21:00.945Z,77.11
2023-12-07T01:23:48.786Z,77.33
2023-12-07T01:26:37.625Z,76.90
2023-12-07T01:29:24.524Z,77.23
2023-12-07T01:32:11.593Z,77.39
2023-12-07T01:34:58.531Z,77.29
2023-12-07T01:37:45.649Z,77.00
2023-12-07T01:40:32.547Z,77.01
2023-12-07T01:43:21.717Z,77.27
2023-12-07T01:46:08.725Z,77.37
2023-12-07T01:48:55.954Z,76.88
2023-12-07T01:51:43.639Z,76.96
2023-12-07T01:54:30.844Z,77.13
2023-12-07T01:57:17.776Z,76.81
2023-12-07T02:00:05.269Z,77.05
2023-12-07T02:02:52.811Z,76.98
2023-12-07T02:05:43.630Z,77.16
2023-12-07T02:08:30.462Z,77.30
2023-12-07T02:11:17.393Z,77.01
2023-12-07T02:14:04.264Z,76.94
2023-12-07T02:17:12.728Z,76.97
2023-12-07T02:20:08.549Z,77.04
2023-12-07T02:23:03.328Z,77.17
2023-12-07T02:25:54.645Z,77.32
2023-12-07T02:28:41.589Z,77.01
2023-12-07T02:31:29.282Z,77.04
2023-12-07T02:34:16.406Z,77.38
2023-12-07T02:37:04.470Z,77.33
2023-12-07T02:39:52.531Z,77.37
2023-12-07T02:42:42.014Z,77.19
2023-12-07T02:45:29.037Z,77.04
2023-12-07T02:48:15.950Z,76.98
2023-12-07T02:51:02.844Z,77.26
2023-12-07T02:53:49.745Z,76.93
2023-12-07T02:56:36.564Z,77.28
2023-12-07T02:59:23.422Z,77.26
2023-12-07T03:02:10.332Z,77.30
2023-12-07T03:04:57.172Z,77.43
2023-12-07T03:07:44.020Z,77.02
2023-12-07T03:10:30.848Z,77.26
2023-12-07T03:13:17.774Z,77.02
2023-12-07T03:16:08.689Z,76.96
2023-12-07T03:18:55.611Z,77.34
2023-12-07T03:21:43.875Z,76.84
2023-12-07T03:24:30.737Z,77.17
2023-12-07T03:27:17.634Z,77.09
2023-12-07T03:30:06.445Z,77.15
2023-12-07T03:32:53.583Z,77.01
2023-12-07T03:35:40.643Z,76.96
2023-12-07T03:38:27.476Z,76.96
2023-12-07T03:41:14.473Z,77.25
2023-12-07T03:44:01.379Z,77.14
2023-12-07T03:46:48.231Z,77.29
2023-12-07T03:49:36.719Z,76.98
2023-12-07T03:52:24.036Z,77.06
2023-12-07T03:55:12.419Z,77.37
2023-12-07T03:57:59.510Z,77.26
2023-12-07T04:00:46.592Z,77.39
2023-12-07T04:03:33.480Z,77.37
2023-12-07T04:06:21.818Z,77.30
2023-12-07T04:09:08.754Z,77.10
2023-12-07T04:11:55.614Z,77.01
2023-12-07T04:14:42.494Z,77.32
2023-12-07T04:17:29.529Z,77.14
2023-12-07T04:20:16.476Z,77.07
2023-12-07T04:23:03.363Z,76.84
2023-12-07T04:25:50.294Z,77.19
2023-12-07T04:28:37.232Z,76.94
2023-12-07T04:31:24.155Z,77.24
2023-12-07T04:34:11.299Z,77.27
2023-12-07T04:36:58.241Z,77.15
2023-12-07T04:39:45.121Z,77.29
2023-12-07T04:42:32.022Z,77.19
2023-12-07T04:45:19.266Z,77.22
2023-12-07T04:48:06.660Z,77.29
2023-12-07T04:50:53.844Z,77.44
2023-12-07T04:53:40.778Z,77.30
2023-12-07T04:56:27.728Z,77.54
2023-12-07T04:59:14.701Z,76.79
2023-12-07T05:02:01.667Z,76.78
2023-12-07T05:04:48.613Z,76.69
2023-12-07T05:07:35.670Z,76.97
2023-12-07T05:10:22.641Z,77.00
2023-12-07T05:13:09.497Z,77.19
2023-12-07T05:15:56.384Z,77.19
2023-12-07T05:18:43.397Z,77.13
2023-12-07T05:21:30.290Z,77.13
2023-12-07T05:24:17.298Z,76.69
2023-12-07T05:27:04.964Z,76.94
2023-12-07T05:29:51.858Z,76.84
2023-12-07T05:32:38.756Z,77.38
2023-12-07T05:35:25.806Z,77.08
2023-12-07T05:38:12.705Z,76.75
2023-12-07T05:40:59.620Z,76.90
2023-12-07T05:43:46.513Z,77.16
2023-12-07T05:46:34.030Z,76.98
2023-12-07T05:49:23.499Z,77.12
2023-12-07T05:52:10.424Z,77.22
2023-12-07T05:54:57.294Z,77.08
2023-12-07T05:57:46.776Z,77.10
2023-12-07T06:00:33.700Z,76.77
2023-12-07T06:03:20.637Z,77.04
2023-12-07T06:06:07.774Z,76.69
2023-12-07T06:08:55.035Z,77.24
2023-12-07T06:11:41.889Z,76.89
2023-12-07T06:14:28.767Z,76.96
2023-12-07T06:17:15.668Z,77.10
2023-12-07T06:20:04.422Z,76.87
2023-12-07T06:22:51.489Z,77.02
2023-12-07T06:25:38.373Z,77.19
2023-12-07T06:28:25.269Z,76.76
2023-12-07T06:34:09.313Z,77.15
2023-12-07T06:36:56.339Z,76.70
2023-12-07T06:39:43.249Z,77.00
2023-12-07T06:42:30.103Z,76.97
2023-12-07T06:45:17.600Z,76.91
2023-12-07T06:48:05.049Z,76.95
2023-12-07T06:50:52.135Z,77.20
2023-12-07T06:53:39.021Z,76.69
2023-12-07T06:56:26.488Z,76.67
2023-12-07T06:59:13.366Z,76.64
2023-12-07T07:02:00.584Z,76.21
2023-12-07T07:04:50.108Z,75.90
2023-12-07T07:07:37.055Z,76.26
2023-12-07T07:10:24.111Z,76.02
2023-12-07T07:13:11.018Z,76.41
2023-12-07T07:15:57.906Z,75.93
2023-12-07T07:18:44.746Z,76.32
2023-12-07T07:21:31.800Z,75.98
2023-12-07T07:24:18.733Z,75.78
2023-12-07T07:27:06.224Z,76.36
2023-12-07T07:29:53.275Z,76.41
2023-12-07T07:32:40.400Z,76.33
2023-12-07T07:35:28.538Z,76.06
2023-12-07T07:38:15.882Z,75.79
2023-12-07T07:41:02.736Z,75.98
2023-12-07T07:43:49.651Z,76.45
2023-12-07T07:46:36.973Z,76.27
2023-12-07T07:49:23.957Z,76.44
2023-12-07T07:52:10.980Z,76.18
2023-12-07T07:54:57.822Z,76.49
2023-12-07T07:57:45.120Z,76.77
2023-12-07T08:00:34.009Z,76.32
2023-12-07T08:03:21.123Z,75.92
2023-12-07T08:06:08.529Z,76.53
2023-12-07T08:08:55.472Z,76.43
2023-12-07T08:11:42.407Z,76.16
2023-12-07T08:14:29.279Z,76.04
2023-12-07T08:17:16.279Z,75.79
2023-12-07T08:20:03.236Z,75.94
2023-12-07T08:22:51.109Z,75.76
2023-12-07T08:25:39.846Z,75.67
2023-12-07T08:28:26.758Z,75.80
2023-12-07T08:31:13.710Z,75.86
2023-12-07T08:34:01.789Z,75.61
2023-12-07T08:36:48.863Z,75.78
2023-12-07T08:39:35.715Z,75.51
2023-12-07T08:42:22.847Z,75.75
2023-12-07T08:45:10.159Z,75.57
2023-12-07T08:47:57.089Z,75.51
2023-12-07T08:50:44.060Z,75.63
2023-12-07T08:53:30.995Z,75.27
2023-12-07T08:56:17.848Z,75.05
2023-12-07T08:59:05.438Z,74.79
2023-12-07T09:01:52.441Z,75.17
2023-12-07T09:04:40.571Z,74.98
2023-12-07T09:07:27.875Z,74.87
2023-12-07T09:10:14.912Z,74.69
2023-12-07T09:13:01.865Z,74.78
2023-12-07T09:15:48.761Z,74.52
2023-12-07T09:18:36.639Z,74.50
2023-12-07T09:21:23.596Z,74.53
2023-12-07T09:24:10.476Z,74.50
2023-12-07T09:26:57.343Z,74.52
2023-12-07T09:29:44.140Z,74.60
2023-12-07T09:32:36.565Z,74.28
2023-12-07T09:35:23.936Z,74.12
2023-12-07T09:38:11.202Z,74.50
2023-12-07T09:40:58.098Z,74.47
2023-12-07T09:43:44.922Z,74.35
2023-12-07T09:46:32.309Z,74.27
2023-12-07T09:49:19.241Z,74.32
2023-12-07T09:52:08.577Z,74.26
2023-12-07T09:54:55.527Z,74.43
2023-12-07T09:57:42.367Z,74.32
2023-12-07T10:00:29.976Z,74.44
2023-12-07T10:03:24.220Z,74.26
2023-12-07T10:06:11.437Z,74.29
2023-12-07T10:09:04.329Z,74.55
2023-12-07T10:11:51.343Z,74.38
2023-12-07T10:14:39.332Z,74.15
2023-12-07T10:17:28.644Z,74.14
2023-12-07T10:20:16.430Z,74.25
2023-12-07T10:23:08.375Z,73.98
2023-12-07T10:25:55.916Z,74.10
2023-12-07T10:28:43.229Z,74.21
2023-12-07T10:31:32.153Z,74.39
2023-12-07T10:34:21.337Z,74.26
2023-12-07T10:37:08.351Z,74.34
2023-12-07T10:39:56.337Z,73.93
2023-12-07T10:42:46.212Z,74.24
2023-12-07T10:45:35.642Z,74.26
2023-12-07T10:48:22.825Z,74.03
2023-12-07T10:51:11.852Z,74.25
2023-12-07T10:53:59.679Z,74.37
2023-12-07T10:56:47.638Z,74.15
2023-12-07T10:59:36.450Z,74.07
2023-12-07T11:02:23.825Z,74.13
2023-12-07T11:05:11.296Z,73.99
2023-12-07T11:08:22.804Z,74.13
2023-12-07T11:11:31.005Z,73.94
2023-12-07T11:14:18.442Z,74.07
2023-12-07T11:17:05.681Z,73.95
2023-12-07T11:19:53.511Z,74.45
2023-12-07T11:22:42.161Z,73.99
2023-12-07T11:25:29.180Z,74.09
2023-12-07T11:28:16.510Z,73.90
2023-12-07T11:31:03.621Z,73.79
2023-12-07T11:33:51.095Z,73.84
2023-12-07T11:36:38.391Z,73.82
2023-12-07T11:39:29.837Z,73.91
2023-12-07T11:42:19.036Z,73.85
2023-12-07T11:45:08.936Z,73.92
2023-12-07T11:48:16.209Z,74.03
2023-12-07T11:51:06.910Z,74.08
2023-12-07T11:53:53.718Z,73.87
2023-12-07T11:56:40.659Z,74.43
2023-12-07T11:59:33.705Z,74.07
2023-12-07T12:02:21.330Z,74.60
2023-12-07T12:05:10.905Z,74.68
2023-12-07T12:07:58.221Z,74.96
2023-12-07T12:10:45.626Z,75.30
2023-12-07T12:13:35.592Z,75.70
2023-12-07T12:16:22.582Z,75.71
2023-12-07T12:19:13.858Z,75.82
2023-12-07T12:22:06.269Z,76.23
2023-12-07T12:24:54.786Z,76.13
2023-12-07T12:27:41.929Z,76.18
2023-12-07T12:30:29.935Z,76.21
2023-12-07T12:33:16.761Z,76.27
2023-12-07T12:36:04.836Z,76.45
2023-12-07T12:38:51.983Z,76.21
2023-12-07T12:41:40.358Z,76.51
2023-12-07T12:44:34.054Z,76.35
2023-12-07T12:47:23.475Z,76.10
2023-12-07T12:50:11.748Z,76.44
2023-12-07T12:53:04.624Z,76.65
2023-12-07T12:55:54.089Z,76.66
2023-12-07T12:58:41.095Z,76.32
2023-12-07T13:01:28.152Z,76.16
2023-12-07T13:04:15.178Z,76.30
2023-12-07T13:07:02.066Z,76.17
2023-12-07T13:09:48.913Z,76.21
2023-12-07T13:12:36.477Z,76.36
2023-12-07T13:15:23.500Z,76.16
2023-12-07T13:18:10.545Z,75.98
2023-12-07T13:20:57.598Z,75.85
2023-12-07T13:23:47.472Z,75.61
2023-12-07T13:26:34.991Z,75.53
2023-12-07T13:29:32.224Z,75.41
2023-12-07T13:32:22.610Z,75.60
2023-12-07T13:35:09.702Z,75.33
2023-12-07T13:37:56.728Z,75.34
2023-12-07T13:40:43.572Z,75.25
2023-12-07T13:43:31.707Z,74.82
2023-12-07T13:46:20.008Z,75.22
2023-12-07T13:49:09.698Z,74.92
2023-12-07T13:52:03.687Z,75.03
2023-12-07T13:54:54.454Z,74.82
2023-12-07T13:57:41.932Z,74.61
2023-12-07T14:00:29.066Z,74.79
2023-12-07T14:03:16.060Z,74.99
2023-12-07T14:06:09.460Z,74.72
2023-12-07T14:09:03.865Z,74.79
2023-12-07T14:11:50.711Z,74.70
2023-12-07T14:14:37.694Z,74.93
2023-12-07T14:17:32.204Z,74.90
2023-12-07T14:20:35.622Z,74.75
2023-12-07T14:23:32.664Z,74.74
2023-12-07T14:26:19.591Z,74.99
2023-12-07T14:29:06.606Z,74.95
2023-12-07T14:31:54.471Z,74.84
2023-12-07T14:34:41.643Z,75.04
2023-12-07T14:37:29.353Z,75.31
2023-12-07T14:40:20.231Z,76.04
2023-12-07T14:43:07.278Z,76.23
2023-12-07T14:45:54.167Z,76.53
2023-12-07T14:48:41.215Z,76.83
2023-12-07T14:51:28.168Z,76.74
2023-12-07T14:54:20.297Z,76.99
2023-12-07T14:57:13.224Z,76.78
2023-12-07T15:00:00.412Z,76.94
2023-12-07T15:02:47.470Z,76.79
2023-12-07T15:05:35.009Z,76.83
2023-12-07T15:08:22.023Z,76.88
2023-12-07T15:11:08.933Z,76.92
2023-12-07T15:13:55.841Z,76.79
2023-12-07T15:16:42.692Z,76.98
2023-12-07T15:19:29.741Z,76.92
2023-12-07T15:22:16.688Z,76.89
2023-12-07T15:25:05.994Z,76.70
2023-12-07T15:27:52.828Z,76.62
2023-12-07T15:30:42.561Z,76.53
2023-12-07T15:33:29.568Z,76.80
2023-12-07T15:36:16.480Z,76.51
2023-12-07T15:39:03.602Z,76.49
2023-12-07T15:41:50.532Z,76.44
2023-12-07T15:44:37.589Z,76.61
2023-12-07T15:47:24.815Z,76.53
2023-12-07T15:50:12.754Z,76.58
2023-12-07T15:52:59.581Z,76.46
2023-12-07T15:55:47.360Z,76.67
2023-12-07T15:58:34.342Z,76.40
2023-12-07T16:01:21.243Z,76.50
2023-12-07T16:04:08.126Z,76.60
2023-12-07T16:06:55.033Z,76.48
2023-12-07T16:09:44.994Z,76.36
2023-12-07T16:12:31.856Z,76.46
2023-12-07T16:15:18.782Z,76.37
2023-12-07T16:18:05.942Z,76.35
2023-12-07T16:20:53.026Z,76.33
2023-12-07T16:23:39.923Z,76.16
2023-12-07T16:26:26.858Z,76.19
2023-12-07T16:29:13.785Z,76.27
2023-12-07T16:32:01.014Z,76.25
2023-12-07T16:34:48.721Z,76.09
2023-12-07T16:37:35.578Z,76.04
2023-12-07T16:40:22.438Z,76.21
2023-12-07T16:43:09.312Z,76.15
2023-12-07T16:45:56.183Z,76.27
2023-12-07T16:48:43.376Z,75.90
2023-12-07T16:51:30.364Z,75.81
2023-12-07T16:54:18.021Z,76.13
2023-12-07T16:57:05.098Z,75.94
2023-12-07T16:59:52.008Z,76.11
2023-12-07T17:02:39.186Z,75.97
2023-12-07T17:05:26.136Z,76.09
2023-12-07T17:08:13.113Z,76.15
2023-12-07T17:10:59.955Z,76.04
2023-12-07T17:13:46.786Z,75.86
2023-12-07T17:16:34.018Z,76.13
2023-12-07T17:19:21.267Z,76.02
2023-12-07T17:22:09.716Z,76.05
2023-12-07T17:24:56.577Z,76.14
2023-12-07T17:27:43.425Z,76.15
2023-12-07T17:30:30.278Z,76.07
2023-12-07T17:33:17.249Z,76.04
2023-12-07T17:36:04.429Z,76.20
2023-12-07T17:38:52.546Z,76.04
2023-12-07T17:41:39.552Z,76.09
2023-12-07T17:44:26.476Z,76.03
2023-12-07T17:47:13.327Z,75.99
2023-12-07T17:50:00.265Z,76.20
2023-12-07T17:52:47.514Z,75.92
2023-12-07T17:55:34.890Z,75.98
2023-12-07T17:58:21.687Z,76.01
2023-12-07T18:01:08.555Z,75.92
2023-12-07T18:03:58.569Z,76.09
2023-12-07T18:06:46.727Z,75.84
2023-12-07T18:09:33.577Z,76.10
2023-12-07T18:12:20.425Z,75.84
2023-12-07T18:15:09.088Z,75.97
2023-12-07T18:17:56.085Z,75.99
2023-12-07T18:20:43.811Z,75.89
2023-12-07T18:23:30.829Z,75.81
2023-12-07T18:26:17.679Z,75.84
2023-12-07T18:29:06.294Z,75.98
2023-12-07T18:31:53.174Z,75.85
2023-12-07T18:34:41.633Z,75.82
2023-12-07T18:37:29.196Z,75.74
2023-12-07T18:40:16.055Z,75.81
2023-12-07T18:43:03.426Z,75.77
2023-12-07T18:45:50.686Z,75.90
2023-12-07T18:48:37.683Z,75.70
2023-12-07T18:51:24.700Z,75.89
2023-12-07T18:54:11.821Z,75.46
2023-12-07T18:56:58.772Z,75.72
2023-12-07T18:59:45.749Z,75.60
2023-12-07T19:02:32.767Z,75.81
2023-12-07T19:05:19.670Z,75.74
2023-12-07T19:08:11.142Z,75.74
2023-12-07T19:10:58.004Z,75.70
2023-12-07T19:13:44.846Z,75.54
2023-12-07T19:16:31.705Z,75.63
2023-12-07T19:19:18.668Z,75.70
2023-12-07T19:22:05.563Z,75.63
2023-12-07T19:24:52.442Z,75.58
2023-12-07T19:27:39.287Z,75.68
2023-12-07T19:30:26.163Z,75.53
2023-12-07T19:33:13.101Z,75.58
2023-12-07T19:36:00.568Z,75.54
2023-12-07T19:38:47.492Z,75.57
2023-12-07T19:41:35.109Z,75.41
2023-12-07T19:44:21.988Z,75.02
2023-12-07T19:47:08.816Z,75.53
2023-12-07T19:49:57.055Z,75.48
2023-12-07T19:52:44.029Z,75.40
2023-12-07T19:55:31.774Z,75.45
2023-12-07T19:58:18.813Z,75.49
2023-12-07T20:01:07.748Z,75.33
2023-12-07T20:03:54.740Z,75.39
2023-12-07T20:06:42.682Z,75.42
2023-12-07T20:09:30.060Z,75.33
2023-12-07T20:12:16.890Z,75.50
2023-12-07T20:15:05.021Z,75.56
2023-12-07T20:17:52.027Z,75.28
2023-12-07T20:20:38.924Z,75.04
2023-12-07T20:23:25.857Z,75.13
2023-12-07T20:26:16.382Z,75.00
2023-12-07T20:29:05.145Z,75.16
2023-12-07T20:31:51.978Z,75.14
2023-12-07T20:34:38.824Z,74.64
2023-12-07T20:37:25.921Z,75.06
2023-12-07T20:40:13.405Z,74.94
2023-12-07T20:43:03.591Z,74.89
2023-12-07T20:49:19.167Z,74.75
2023-12-07T20:52:07.014Z,74.84
2023-12-07T20:54:54.287Z,75.11
2023-12-07T20:57:41.203Z,74.71
2023-12-07T21:00:28.205Z,74.61
2023-12-07T21:03:15.118Z,74.74
2023-12-07T21:06:02.040Z,74.78
2023-12-07T21:08:49.014Z,74.71
2023-12-07T21:11:36.638Z,74.70
2023-12-07T21:14:23.709Z,74.46
2023-12-07T21:17:14.326Z,74.65
2023-12-07T21:20:01.534Z,74.49
2023-12-07T21:22:48.934Z,74.50
2023-12-07T21:25:36.049Z,74.39
2023-12-07T21:28:22.894Z,74.41
2023-12-07T21:31:09.907Z,74.12
2023-12-07T21:33:56.867Z,74.29
2023-12-07T21:36:46.853Z,74.29
2023-12-07T21:39:33.741Z,74.22
2023-12-07T21:42:20.569Z,74.11
2023-12-07T21:45:07.676Z,74.01
2023-12-07T21:47:54.728Z,74.35
2023-12-07T21:50:41.679Z,74.15
2023-12-07T21:53:28.646Z,74.00
2023-12-07T21:56:15.543Z,73.68
2023-12-07T21:59:02.782Z,74.17
2023-12-07T22:01:49.600Z,74.03
2023-12-07T22:04:37.696Z,74.14
2023-12-07T22:07:24.959Z,73.69
2023-12-07T22:10:18.684Z,73.73
2023-12-07T22:13:13.674Z,73.87
2023-12-07T22:16:03.066Z,73.46
2023-12-07T22:18:50.071Z,73.81
2023-12-07T22:21:37.008Z,73.38
2023-12-07T22:24:23.865Z,73.68
2023-12-07T22:27:10.844Z,73.79
2023-12-07T22:29:57.912Z,73.49
2023-12-07T22:32:45.962Z,73.66
2023-12-07T22:35:33.389Z,73.54
2023-12-07T22:38:20.344Z,73.40
2023-12-07T22:41:07.228Z,73.41
2023-12-07T22:43:54.503Z,73.56
2023-12-07T22:46:47.725Z,73.27
2023-12-07T22:49:35.023Z,73.33
2023-12-07T22:52:22.070Z,73.39
2023-12-07T22:55:09.089Z,73.47
2023-12-07T22:57:56.065Z,72.88
2023-12-07T23:00:42.908Z,73.10
2023-12-07T23:03:29.789Z,73.38
2023-12-07T23:06:16.730Z,73.09
2023-12-07T23:09:04.251Z,73.20
2023-12-07T23:11:51.168Z,73.08
2023-12-07T23:14:38.067Z,72.87
2023-12-07T23:17:25.117Z,72.81
2023-12-07T23:20:12.156Z,73.16
2023-12-07T23:22:59.116Z,72.71
2023-12-07T23:25:46.003Z,72.76
2023-12-07T23:28:32.845Z,72.88
2023-12-07T23:31:19.756Z,73.20
2023-12-07T23:34:06.756Z,73.01
2023-12-07T23:36:53.743Z,73.23
2023-12-07T23:39:40.554Z,72.69
2023-12-07T23:42:27.448Z,72.36
2023-12-07T23:45:14.380Z,72.52
2023-12-07T23:48:01.411Z,72.64
2023-12-07T23:50:48.387Z,72.85
2023-12-07T23:53:35.300Z,72.70
2023-12-07T23:56:22.201Z,72.68
2023-12-07T23:59:09.046Z,72.99
